Estación Meteorológica Peña el Pijo (Robertgarden) [ 05/25/18 12:52:04 CEST ]

Fecha Hora Presion(HPa) Temp (°C) Humedad % Rocio (°C) Viento ( m/s) Direccion Lluvia 1Hora(mm) Lluvia 24H(mm) LLuvia Total(mm)
2018-Mar-13 01:01:50 1007.600 3.8 74 -0.4       6.73 145.55
2018-Mar-13 02:02:10 1006.500 3.1 77 -0.6       6.73 145.55
2018-Mar-13 03:02:22 1005.900 6.9 80 3.7       6.73 145.55
2018-Mar-13 04:04:31 1004.900 7.8 80 4.6 4.3 N   6.73 145.55
2018-Mar-13 05:01:42 1004.600 9.3 77 5.4 1.6 ENE   6.73 145.55
2018-Mar-13 06:01:39 1004.900 9.4 78 5.7       6.73 145.55
2018-Mar-13 07:01:48 1004.900 9.4 78 5.7       6.73 145.55
2018-Mar-13 08:02:02 1005.400 8.9 82 6.0       5.69 145.55
2018-Mar-13 09:01:47 1005.600 10.4 82 7.4       5.69 145.55
2018-Mar-13 10:01:43 1005.900 13.4 68 7.6         145.55
2018-Mar-13 11:01:51 1006.000 13.9 60 6.3 2.5 N 1.03 1.03 146.59
2018-Mar-13 12:01:39 1006.300 15.5 53 5.9       1.03 146.59
2018-Mar-13 13:01:31 1007.000 16.3 49 5.5       1.03 146.59
2018-Mar-13 14:02:05 1007.300 16.6 46 4.9 0.7 S   1.03 146.59
2018-Mar-13 15:01:48 1007.100 15.9 47 4.5 4.3 WNW   1.03 146.59
2018-Mar-13 16:01:56 1006.700 17.1 43 4.3 1.1 NNW   1.03 146.59
2018-Mar-13 17:01:39 1006.700 14.9 47 3.6 7.2 NNW   1.03 146.59
2018-Mar-13 18:01:43 1006.800 13.3 52 3.6       1.03 146.59
2018-Mar-13 19:01:50 1006.800 11.9 58 3.9       1.03 146.59
2018-Mar-13 20:01:46 1007.300 10.7 63 3.9       1.03 146.59
2018-Mar-13 21:01:46 1007.800 9.9 65 3.6 1.3 NNW   1.03 146.59
2018-Mar-13 22:01:44 1007.600 9.6 68 4.0       1.03 146.59
2018-Mar-13 23:01:43 1007.700 9.4 68 3.8       1.03 146.59

Temperatura Máxima:17°    Temperatura Mínima:
Presión Máxima:1007.800 Hpa    Presión Mínima:1004.600 Hpa


Volver